sensor_id;sensor_type;location;lat;lon;timestamp;P1;durP1;ratioP1;P2;durP2;ratioP2
4808;SDS011;2418;49.930;8.606;2024-03-22T00:01:44;32.35;;;20.00;;
4808;SDS011;2418;49.930;8.606;2024-03-22T00:04:11;40.93;;;20.90;;
4808;SDS011;2418;49.930;8.606;2024-03-22T00:06:37;38.20;;;22.27;;
4808;SDS011;2418;49.930;8.606;2024-03-22T00:09:03;36.63;;;22.58;;
4808;SDS011;2418;49.930;8.606;2024-03-22T00:11:29;39.10;;;21.70;;
4808;SDS011;2418;49.930;8.606;2024-03-22T00:13:56;38.30;;;22.90;;
4808;SDS011;2418;49.930;8.606;2024-03-22T00:16:23;30.38;;;21.42;;
4808;SDS011;2418;49.930;8.606;2024-03-22T00:18:53;34.35;;;20.85;;
4808;SDS011;2418;49.930;8.606;2024-03-22T00:21:19;37.00;;;22.05;;
4808;SDS011;2418;49.930;8.606;2024-03-22T00:23:45;34.20;;;21.95;;
4808;SDS011;2418;49.930;8.606;2024-03-22T00:26:11;32.60;;;19.58;;
4808;SDS011;2418;49.930;8.606;2024-03-22T00:28:37;39.70;;;19.50;;
4808;SDS011;2418;49.930;8.606;2024-03-22T00:31:03;29.80;;;19.75;;
4808;SDS011;2418;49.930;8.606;2024-03-22T00:33:29;37.00;;;21.10;;
4808;SDS011;2418;49.930;8.606;2024-03-22T00:35:56;37.85;;;19.60;;
4808;SDS011;2418;49.930;8.606;2024-03-22T00:38:22;32.10;;;18.90;;
4808;SDS011;2418;49.930;8.606;2024-03-22T00:40:47;29.20;;;19.20;;
4808;SDS011;2418;49.930;8.606;2024-03-22T00:43:13;28.05;;;18.17;;
4808;SDS011;2418;49.930;8.606;2024-03-22T00:45:39;32.22;;;20.02;;
4808;SDS011;2418;49.930;8.606;2024-03-22T00:48:06;36.03;;;19.80;;
4808;SDS011;2418;49.930;8.606;2024-03-22T00:50:32;29.63;;;19.10;;
4808;SDS011;2418;49.930;8.606;2024-03-22T00:52:58;36.45;;;19.70;;
4808;SDS011;2418;49.930;8.606;2024-03-22T00:55:24;32.53;;;19.38;;
4808;SDS011;2418;49.930;8.606;2024-03-22T00:57:50;31.20;;;18.42;;
4808;SDS011;2418;49.930;8.606;2024-03-22T01:00:16;35.42;;;19.50;;
4808;SDS011;2418;49.930;8.606;2024-03-22T01:02:43;31.00;;;19.58;;
4808;SDS011;2418;49.930;8.606;2024-03-22T01:05:09;29.52;;;17.60;;
4808;SDS011;2418;49.930;8.606;2024-03-22T01:07:41;30.15;;;17.77;;
4808;SDS011;2418;49.930;8.606;2024-03-22T01:10:07;29.17;;;19.00;;
4808;SDS011;2418;49.930;8.606;2024-03-22T01:12:34;28.57;;;17.47;;
4808;SDS011;2418;49.930;8.606;2024-03-22T01:15:00;30.35;;;17.98;;
4808;SDS011;2418;49.930;8.606;2024-03-22T01:17:26;28.13;;;17.67;;
4808;SDS011;2418;49.930;8.606;2024-03-22T01:19:52;27.58;;;17.38;;
4808;SDS011;2418;49.930;8.606;2024-03-22T01:22:18;27.30;;;17.55;;
4808;SDS011;2418;49.930;8.606;2024-03-22T01:24:44;26.58;;;17.92;;
4808;SDS011;2418;49.930;8.606;2024-03-22T01:27:10;26.98;;;16.88;;
4808;SDS011;2418;49.930;8.606;2024-03-22T01:29:36;28.23;;;15.98;;
4808;SDS011;2418;49.930;8.606;2024-03-22T01:32:03;25.35;;;16.38;;
4808;SDS011;2418;49.930;8.606;2024-03-22T01:34:29;23.33;;;15.20;;
4808;SDS011;2418;49.930;8.606;2024-03-22T01:36:55;28.17;;;16.20;;
4808;SDS011;2418;49.930;8.606;2024-03-22T01:39:21;21.92;;;15.55;;
4808;SDS011;2418;49.930;8.606;2024-03-22T01:41:47;28.03;;;16.20;;
4808;SDS011;2418;49.930;8.606;2024-03-22T01:44:13;23.73;;;16.30;;
4808;SDS011;2418;49.930;8.606;2024-03-22T01:46:40;23.20;;;15.60;;
4808;SDS011;2418;49.930;8.606;2024-03-22T01:49:11;26.30;;;16.10;;
4808;SDS011;2418;49.930;8.606;2024-03-22T01:51:41;28.48;;;16.48;;
4808;SDS011;2418;49.930;8.606;2024-03-22T01:54:10;29.80;;;18.50;;
4808;SDS011;2418;49.930;8.606;2024-03-22T01:56:37;26.25;;;17.60;;
4808;SDS011;2418;49.930;8.606;2024-03-22T01:59:06;31.17;;;17.25;;
4808;SDS011;2418;49.930;8.606;2024-03-22T02:01:33;27.08;;;16.90;;
4808;SDS011;2418;49.930;8.606;2024-03-22T02:03:59;29.13;;;16.10;;
4808;SDS011;2418;49.930;8.606;2024-03-22T02:06:25;30.35;;;16.48;;
4808;SDS011;2418;49.930;8.606;2024-03-22T02:08:51;28.75;;;16.08;;
4808;SDS011;2418;49.930;8.606;2024-03-22T02:11:17;24.38;;;15.80;;
4808;SDS011;2418;49.930;8.606;2024-03-22T02:13:44;26.67;;;16.05;;
4808;SDS011;2418;49.930;8.606;2024-03-22T02:16:10;25.63;;;16.10;;
4808;SDS011;2418;49.930;8.606;2024-03-22T02:18:36;26.30;;;16.13;;
4808;SDS011;2418;49.930;8.606;2024-03-22T02:21:02;29.05;;;17.02;;
4808;SDS011;2418;49.930;8.606;2024-03-22T02:23:35;26.77;;;17.30;;
4808;SDS011;2418;49.930;8.606;2024-03-22T02:26:01;33.22;;;17.85;;
4808;SDS011;2418;49.930;8.606;2024-03-22T02:28:27;40.45;;;20.58;;
4808;SDS011;2418;49.930;8.606;2024-03-22T02:30:54;37.97;;;21.20;;
4808;SDS011;2418;49.930;8.606;2024-03-22T02:33:20;34.90;;;19.27;;
4808;SDS011;2418;49.930;8.606;2024-03-22T02:35:46;34.90;;;18.92;;
4808;SDS011;2418;49.930;8.606;2024-03-22T02:38:12;35.45;;;19.92;;
4808;SDS011;2418;49.930;8.606;2024-03-22T02:40:38;34.80;;;20.15;;
4808;SDS011;2418;49.930;8.606;2024-03-22T02:43:04;33.80;;;18.13;;
4808;SDS011;2418;49.930;8.606;2024-03-22T02:45:30;26.70;;;17.30;;
4808;SDS011;2418;49.930;8.606;2024-03-22T02:47:56;33.87;;;18.90;;
4808;SDS011;2418;49.930;8.606;2024-03-22T02:50:22;36.08;;;18.35;;
4808;SDS011;2418;49.930;8.606;2024-03-22T02:52:49;29.58;;;17.55;;
4808;SDS011;2418;49.930;8.606;2024-03-22T02:55:15;31.48;;;18.95;;
4808;SDS011;2418;49.930;8.606;2024-03-22T02:57:41;32.80;;;17.95;;
4808;SDS011;2418;49.930;8.606;2024-03-22T03:00:07;42.83;;;19.17;;
4808;SDS011;2418;49.930;8.606;2024-03-22T03:02:33;31.38;;;18.58;;
4808;SDS011;2418;49.930;8.606;2024-03-22T03:04:59;32.13;;;17.70;;
4808;SDS011;2418;49.930;8.606;2024-03-22T03:07:26;31.03;;;18.03;;
4808;SDS011;2418;49.930;8.606;2024-03-22T03:09:53;28.05;;;18.60;;
4808;SDS011;2418;49.930;8.606;2024-03-22T03:12:18;34.37;;;19.17;;
4808;SDS011;2418;49.930;8.606;2024-03-22T03:14:44;32.25;;;19.25;;
4808;SDS011;2418;49.930;8.606;2024-03-22T03:17:10;28.00;;;17.75;;
4808;SDS011;2418;49.930;8.606;2024-03-22T03:19:37;33.58;;;18.45;;
4808;SDS011;2418;49.930;8.606;2024-03-22T03:22:03;29.23;;;17.33;;
4808;SDS011;2418;49.930;8.606;2024-03-22T03:24:29;35.40;;;17.92;;
4808;SDS011;2418;49.930;8.606;2024-03-22T03:26:55;31.88;;;18.80;;
4808;SDS011;2418;49.930;8.606;2024-03-22T03:29:21;33.50;;;17.93;;
4808;SDS011;2418;49.930;8.606;2024-03-22T03:31:47;30.75;;;16.85;;
4808;SDS011;2418;49.930;8.606;2024-03-22T03:34:14;33.70;;;18.63;;
4808;SDS011;2418;49.930;8.606;2024-03-22T03:36:40;30.43;;;18.23;;
4808;SDS011;2418;49.930;8.606;2024-03-22T03:39:06;26.83;;;17.65;;
4808;SDS011;2418;49.930;8.606;2024-03-22T03:41:32;30.95;;;17.90;;
4808;SDS011;2418;49.930;8.606;2024-03-22T03:43:58;32.90;;;18.50;;
4808;SDS011;2418;49.930;8.606;2024-03-22T03:46:24;32.47;;;18.35;;
4808;SDS011;2418;49.930;8.606;2024-03-22T03:48:50;31.40;;;19.27;;
4808;SDS011;2418;49.930;8.606;2024-03-22T03:51:16;30.30;;;18.08;;
4808;SDS011;2418;49.930;8.606;2024-03-22T03:53:42;27.95;;;17.63;;
4808;SDS011;2418;49.930;8.606;2024-03-22T03:56:08;30.33;;;17.73;;
4808;SDS011;2418;49.930;8.606;2024-03-22T03:58:34;24.20;;;16.13;;
4808;SDS011;2418;49.930;8.606;2024-03-22T04:01:04;26.80;;;16.48;;
4808;SDS011;2418;49.930;8.606;2024-03-22T04:03:30;26.27;;;17.15;;
4808;SDS011;2418;49.930;8.606;2024-03-22T04:05:57;26.27;;;16.75;;
4808;SDS011;2418;49.930;8.606;2024-03-22T04:08:24;29.05;;;17.70;;
4808;SDS011;2418;49.930;8.606;2024-03-22T04:10:51;31.55;;;16.58;;
4808;SDS011;2418;49.930;8.606;2024-03-22T04:13:17;27.15;;;16.67;;
4808;SDS011;2418;49.930;8.606;2024-03-22T04:15:43;31.27;;;16.67;;
4808;SDS011;2418;49.930;8.606;2024-03-22T04:18:10;29.40;;;16.53;;
4808;SDS011;2418;49.930;8.606;2024-03-22T04:20:36;31.17;;;16.35;;
4808;SDS011;2418;49.930;8.606;2024-03-22T04:23:02;29.85;;;16.90;;
4808;SDS011;2418;49.930;8.606;2024-03-22T04:25:28;28.45;;;17.83;;
4808;SDS011;2418;49.930;8.606;2024-03-22T04:27:54;25.27;;;15.85;;
4808;SDS011;2418;49.930;8.606;2024-03-22T04:30:20;27.47;;;16.30;;
4808;SDS011;2418;49.930;8.606;2024-03-22T04:32:46;26.40;;;17.40;;
4808;SDS011;2418;49.930;8.606;2024-03-22T04:35:12;24.88;;;15.52;;
4808;SDS011;2418;49.930;8.606;2024-03-22T04:37:38;24.65;;;15.43;;
4808;SDS011;2418;49.930;8.606;2024-03-22T04:40:05;23.80;;;16.03;;
4808;SDS011;2418;49.930;8.606;2024-03-22T04:42:31;28.77;;;16.10;;
4808;SDS011;2418;49.930;8.606;2024-03-22T04:44:57;31.17;;;16.93;;
4808;SDS011;2418;49.930;8.606;2024-03-22T04:47:23;28.08;;;16.92;;
4808;SDS011;2418;49.930;8.606;2024-03-22T04:49:49;27.35;;;16.55;;
4808;SDS011;2418;49.930;8.606;2024-03-22T04:52:15;28.00;;;16.30;;
4808;SDS011;2418;49.930;8.606;2024-03-22T04:54:41;27.77;;;17.38;;
4808;SDS011;2418;49.930;8.606;2024-03-22T04:57:06;30.98;;;17.42;;
4808;SDS011;2418;49.930;8.606;2024-03-22T04:59:32;29.48;;;16.55;;
4808;SDS011;2418;49.930;8.606;2024-03-22T05:01:58;25.95;;;16.30;;
4808;SDS011;2418;49.930;8.606;2024-03-22T05:04:24;25.58;;;17.25;;
4808;SDS011;2418;49.930;8.606;2024-03-22T05:06:50;25.10;;;15.50;;
4808;SDS011;2418;49.930;8.606;2024-03-22T05:09:16;24.08;;;15.68;;
4808;SDS011;2418;49.930;8.606;2024-03-22T05:11:42;27.88;;;16.50;;
4808;SDS011;2418;49.930;8.606;2024-03-22T05:14:08;32.80;;;18.15;;
4808;SDS011;2418;49.930;8.606;2024-03-22T05:16:34;25.70;;;17.00;;
4808;SDS011;2418;49.930;8.606;2024-03-22T05:19:00;29.05;;;16.80;;
4808;SDS011;2418;49.930;8.606;2024-03-22T05:21:26;29.07;;;18.03;;
4808;SDS011;2418;49.930;8.606;2024-03-22T05:23:52;46.85;;;23.27;;
4808;SDS011;2418;49.930;8.606;2024-03-22T05:26:18;41.53;;;21.35;;
4808;SDS011;2418;49.930;8.606;2024-03-22T05:28:45;34.40;;;18.23;;
4808;SDS011;2418;49.930;8.606;2024-03-22T05:31:11;28.00;;;16.60;;
4808;SDS011;2418;49.930;8.606;2024-03-22T05:33:37;30.83;;;17.35;;
4808;SDS011;2418;49.930;8.606;2024-03-22T05:36:03;33.38;;;16.83;;
4808;SDS011;2418;49.930;8.606;2024-03-22T05:38:29;30.73;;;17.50;;
4808;SDS011;2418;49.930;8.606;2024-03-22T05:40:56;28.70;;;17.08;;
4808;SDS011;2418;49.930;8.606;2024-03-22T05:43:22;27.37;;;16.30;;
4808;SDS011;2418;49.930;8.606;2024-03-22T05:45:48;29.70;;;18.20;;
4808;SDS011;2418;49.930;8.606;2024-03-22T05:48:14;27.95;;;17.90;;
4808;SDS011;2418;49.930;8.606;2024-03-22T05:50:40;25.70;;;17.60;;
4808;SDS011;2418;49.930;8.606;2024-03-22T05:53:06;26.20;;;17.35;;
4808;SDS011;2418;49.930;8.606;2024-03-22T05:55:32;27.20;;;16.83;;
4808;SDS011;2418;49.930;8.606;2024-03-22T05:57:58;26.88;;;16.63;;
4808;SDS011;2418;49.930;8.606;2024-03-22T06:00:24;26.63;;;16.80;;
4808;SDS011;2418;49.930;8.606;2024-03-22T06:02:51;26.40;;;16.63;;
4808;SDS011;2418;49.930;8.606;2024-03-22T06:05:17;25.88;;;17.30;;
4808;SDS011;2418;49.930;8.606;2024-03-22T06:07:43;30.17;;;17.20;;
4808;SDS011;2418;49.930;8.606;2024-03-22T06:10:11;25.50;;;16.37;;
4808;SDS011;2418;49.930;8.606;2024-03-22T06:12:37;29.40;;;17.92;;
4808;SDS011;2418;49.930;8.606;2024-03-22T06:15:03;31.25;;;18.67;;
4808;SDS011;2418;49.930;8.606;2024-03-22T06:17:31;25.88;;;16.27;;
4808;SDS011;2418;49.930;8.606;2024-03-22T06:19:57;21.23;;;15.20;;
4808;SDS011;2418;49.930;8.606;2024-03-22T06:22:24;33.25;;;16.50;;
4808;SDS011;2418;49.930;8.606;2024-03-22T06:24:50;23.00;;;16.88;;
4808;SDS011;2418;49.930;8.606;2024-03-22T06:27:16;24.92;;;16.15;;
4808;SDS011;2418;49.930;8.606;2024-03-22T06:29:42;25.02;;;16.33;;
4808;SDS011;2418;49.930;8.606;2024-03-22T06:32:08;23.17;;;15.82;;
4808;SDS011;2418;49.930;8.606;2024-03-22T06:34:34;20.13;;;15.00;;
4808;SDS011;2418;49.930;8.606;2024-03-22T06:37:00;33.47;;;17.58;;
4808;SDS011;2418;49.930;8.606;2024-03-22T06:39:27;27.08;;;16.33;;
4808;SDS011;2418;49.930;8.606;2024-03-22T06:41:53;24.77;;;17.00;;
4808;SDS011;2418;49.930;8.606;2024-03-22T06:44:19;19.83;;;14.33;;
4808;SDS011;2418;49.930;8.606;2024-03-22T06:46:45;24.88;;;15.05;;
4808;SDS011;2418;49.930;8.606;2024-03-22T06:49:10;20.95;;;14.25;;
4808;SDS011;2418;49.930;8.606;2024-03-22T06:51:36;21.98;;;14.27;;
4808;SDS011;2418;49.930;8.606;2024-03-22T06:54:03;16.90;;;14.02;;
4808;SDS011;2418;49.930;8.606;2024-03-22T06:56:28;24.90;;;15.00;;
4808;SDS011;2418;49.930;8.606;2024-03-22T06:58:54;19.55;;;14.02;;
4808;SDS011;2418;49.930;8.606;2024-03-22T07:01:21;20.03;;;14.10;;
4808;SDS011;2418;49.930;8.606;2024-03-22T07:03:47;18.13;;;13.88;;
4808;SDS011;2418;49.930;8.606;2024-03-22T07:06:14;20.08;;;13.85;;
4808;SDS011;2418;49.930;8.606;2024-03-22T07:08:41;20.20;;;12.75;;
4808;SDS011;2418;49.930;8.606;2024-03-22T07:11:07;19.55;;;12.80;;
4808;SDS011;2418;49.930;8.606;2024-03-22T07:13:33;21.98;;;14.00;;
4808;SDS011;2418;49.930;8.606;2024-03-22T07:15:59;18.98;;;13.25;;
4808;SDS011;2418;49.930;8.606;2024-03-22T07:18:27;19.75;;;13.52;;
4808;SDS011;2418;49.930;8.606;2024-03-22T07:20:53;20.02;;;13.25;;
4808;SDS011;2418;49.930;8.606;2024-03-22T07:23:19;19.83;;;13.75;;
4808;SDS011;2418;49.930;8.606;2024-03-22T07:25:45;18.35;;;13.68;;
4808;SDS011;2418;49.930;8.606;2024-03-22T07:28:13;17.90;;;13.52;;
4808;SDS011;2418;49.930;8.606;2024-03-22T07:30:41;15.37;;;13.10;;
4808;SDS011;2418;49.930;8.606;2024-03-22T07:33:07;18.70;;;13.20;;
4808;SDS011;2418;49.930;8.606;2024-03-22T07:35:36;19.60;;;13.70;;
4808;SDS011;2418;49.930;8.606;2024-03-22T07:38:03;19.20;;;13.45;;
4808;SDS011;2418;49.930;8.606;2024-03-22T07:40:29;19.88;;;13.65;;
4808;SDS011;2418;49.930;8.606;2024-03-22T07:42:55;18.58;;;13.30;;
4808;SDS011;2418;49.930;8.606;2024-03-22T07:45:21;19.15;;;12.73;;
4808;SDS011;2418;49.930;8.606;2024-03-22T07:47:47;17.95;;;13.70;;
4808;SDS011;2418;49.930;8.606;2024-03-22T07:50:13;18.13;;;13.23;;
4808;SDS011;2418;49.930;8.606;2024-03-22T07:52:40;22.25;;;13.60;;
4808;SDS011;2418;49.930;8.606;2024-03-22T07:55:06;24.57;;;14.47;;
4808;SDS011;2418;49.930;8.606;2024-03-22T07:57:32;22.02;;;13.82;;
4808;SDS011;2418;49.930;8.606;2024-03-22T07:59:58;23.70;;;14.27;;
4808;SDS011;2418;49.930;8.606;2024-03-22T08:02:24;20.03;;;13.90;;
4808;SDS011;2418;49.930;8.606;2024-03-22T08:04:51;22.98;;;13.40;;
4808;SDS011;2418;49.930;8.606;2024-03-22T08:07:16;19.92;;;12.68;;
4808;SDS011;2418;49.930;8.606;2024-03-22T08:09:42;19.23;;;13.73;;
4808;SDS011;2418;49.930;8.606;2024-03-22T08:12:08;17.70;;;13.10;;
4808;SDS011;2418;49.930;8.606;2024-03-22T08:14:34;19.17;;;14.43;;
4808;SDS011;2418;49.930;8.606;2024-03-22T08:17:01;19.48;;;13.35;;
4808;SDS011;2418;49.930;8.606;2024-03-22T08:19:28;22.85;;;13.85;;
4808;SDS011;2418;49.930;8.606;2024-03-22T08:21:54;18.92;;;13.38;;
4808;SDS011;2418;49.930;8.606;2024-03-22T08:24:20;17.17;;;11.70;;
4808;SDS011;2418;49.930;8.606;2024-03-22T08:26:46;18.27;;;12.53;;
4808;SDS011;2418;49.930;8.606;2024-03-22T08:29:15;18.92;;;11.65;;
4808;SDS011;2418;49.930;8.606;2024-03-22T08:31:41;20.42;;;13.10;;
4808;SDS011;2418;49.930;8.606;2024-03-22T08:34:07;17.27;;;12.63;;
4808;SDS011;2418;49.930;8.606;2024-03-22T08:36:33;17.45;;;13.40;;
4808;SDS011;2418;49.930;8.606;2024-03-22T08:38:59;16.00;;;12.13;;
4808;SDS011;2418;49.930;8.606;2024-03-22T08:41:25;17.17;;;13.27;;
4808;SDS011;2418;49.930;8.606;2024-03-22T08:43:51;13.38;;;11.98;;
4808;SDS011;2418;49.930;8.606;2024-03-22T08:46:17;15.95;;;11.60;;
4808;SDS011;2418;49.930;8.606;2024-03-22T08:48:43;14.23;;;11.43;;
4808;SDS011;2418;49.930;8.606;2024-03-22T08:51:09;12.32;;;10.85;;
4808;SDS011;2418;49.930;8.606;2024-03-22T08:53:35;10.30;;;9.30;;
4808;SDS011;2418;49.930;8.606;2024-03-22T08:56:02;11.63;;;10.13;;
4808;SDS011;2418;49.930;8.606;2024-03-22T08:58:28;15.45;;;10.73;;
4808;SDS011;2418;49.930;8.606;2024-03-22T09:00:54;13.50;;;10.27;;
4808;SDS011;2418;49.930;8.606;2024-03-22T09:03:20;9.73;;;8.82;;
4808;SDS011;2418;49.930;8.606;2024-03-22T09:05:46;13.88;;;10.13;;
4808;SDS011;2418;49.930;8.606;2024-03-22T09:08:12;11.30;;;9.90;;
4808;SDS011;2418;49.930;8.606;2024-03-22T09:10:38;18.10;;;10.10;;
4808;SDS011;2418;49.930;8.606;2024-03-22T09:13:04;11.05;;;8.57;;
4808;SDS011;2418;49.930;8.606;2024-03-22T09:15:30;12.73;;;9.57;;
4808;SDS011;2418;49.930;8.606;2024-03-22T09:17:56;9.82;;;8.93;;
4808;SDS011;2418;49.930;8.606;2024-03-22T09:20:22;11.48;;;9.70;;
4808;SDS011;2418;49.930;8.606;2024-03-22T09:22:48;13.45;;;9.00;;
4808;SDS011;2418;49.930;8.606;2024-03-22T09:25:15;14.60;;;10.20;;
4808;SDS011;2418;49.930;8.606;2024-03-22T09:27:41;9.75;;;8.52;;
4808;SDS011;2418;49.930;8.606;2024-03-22T09:30:07;10.77;;;8.38;;
4808;SDS011;2418;49.930;8.606;2024-03-22T09:32:34;11.60;;;9.03;;
4808;SDS011;2418;49.930;8.606;2024-03-22T09:35:01;14.45;;;8.90;;
4808;SDS011;2418;49.930;8.606;2024-03-22T09:37:27;9.63;;;8.70;;
4808;SDS011;2418;49.930;8.606;2024-03-22T09:39:53;9.63;;;8.73;;
4808;SDS011;2418;49.930;8.606;2024-03-22T09:42:19;9.55;;;8.60;;
4808;SDS011;2418;49.930;8.606;2024-03-22T09:44:48;13.27;;;8.27;;
4808;SDS011;2418;49.930;8.606;2024-03-22T09:47:15;10.57;;;8.70;;
4808;SDS011;2418;49.930;8.606;2024-03-22T09:49:42;10.23;;;8.82;;
4808;SDS011;2418;49.930;8.606;2024-03-22T09:52:14;13.60;;;8.52;;
4808;SDS011;2418;49.930;8.606;2024-03-22T09:54:44;16.52;;;9.40;;
4808;SDS011;2418;49.930;8.606;2024-03-22T09:57:11;12.60;;;10.20;;
4808;SDS011;2418;49.930;8.606;2024-03-22T09:59:40;11.00;;;9.90;;
4808;SDS011;2418;49.930;8.606;2024-03-22T10:02:07;14.63;;;10.60;;
4808;SDS011;2418;49.930;8.606;2024-03-22T10:04:34;12.25;;;10.35;;
4808;SDS011;2418;49.930;8.606;2024-03-22T10:07:01;18.55;;;10.02;;
4808;SDS011;2418;49.930;8.606;2024-03-22T10:09:28;11.60;;;9.60;;
4808;SDS011;2418;49.930;8.606;2024-03-22T10:11:55;10.65;;;9.32;;
4808;SDS011;2418;49.930;8.606;2024-03-22T10:14:21;9.63;;;8.63;;
4808;SDS011;2418;49.930;8.606;2024-03-22T10:16:50;8.52;;;7.60;;
4808;SDS011;2418;49.930;8.606;2024-03-22T10:19:18;8.60;;;7.67;;
4808;SDS011;2418;49.930;8.606;2024-03-22T10:21:44;8.45;;;7.72;;
4808;SDS011;2418;49.930;8.606;2024-03-22T10:24:11;9.73;;;7.80;;
4808;SDS011;2418;49.930;8.606;2024-03-22T10:26:37;9.93;;;8.23;;
4808;SDS011;2418;49.930;8.606;2024-03-22T10:29:06;12.68;;;7.95;;
4808;SDS011;2418;49.930;8.606;2024-03-22T10:31:34;9.00;;;7.85;;
4808;SDS011;2418;49.930;8.606;2024-03-22T10:34:01;10.70;;;8.40;;
4808;SDS011;2418;49.930;8.606;2024-03-22T10:36:32;12.07;;;8.40;;
4808;SDS011;2418;49.930;8.606;2024-03-22T10:38:58;11.38;;;7.90;;
4808;SDS011;2418;49.930;8.606;2024-03-22T10:41:26;8.52;;;7.68;;
4808;SDS011;2418;49.930;8.606;2024-03-22T10:43:52;8.52;;;7.65;;
4808;SDS011;2418;49.930;8.606;2024-03-22T10:46:19;27.30;;;8.52;;
4808;SDS011;2418;49.930;8.606;2024-03-22T10:48:46;9.43;;;8.52;;
4808;SDS011;2418;49.930;8.606;2024-03-22T10:51:12;13.20;;;9.00;;
4808;SDS011;2418;49.930;8.606;2024-03-22T10:53:40;12.30;;;8.43;;
4808;SDS011;2418;49.930;8.606;2024-03-22T10:56:07;10.18;;;8.68;;
4808;SDS011;2418;49.930;8.606;2024-03-22T10:58:37;13.90;;;9.77;;
4808;SDS011;2418;49.930;8.606;2024-03-22T11:01:05;12.60;;;9.10;;
4808;SDS011;2418;49.930;8.606;2024-03-22T11:03:31;13.10;;;8.55;;
4808;SDS011;2418;49.930;8.606;2024-03-22T11:05:58;11.90;;;9.00;;
4808;SDS011;2418;49.930;8.606;2024-03-22T11:08:25;10.98;;;9.68;;
4808;SDS011;2418;49.930;8.606;2024-03-22T11:10:52;16.95;;;10.00;;
4808;SDS011;2418;49.930;8.606;2024-03-22T11:13:19;17.15;;;10.00;;
4808;SDS011;2418;49.930;8.606;2024-03-22T11:15:51;12.48;;;9.43;;
4808;SDS011;2418;49.930;8.606;2024-03-22T11:18:18;12.43;;;9.40;;
4808;SDS011;2418;49.930;8.606;2024-03-22T11:20:44;9.80;;;8.80;;
4808;SDS011;2418;49.930;8.606;2024-03-22T11:23:10;10.93;;;9.17;;
4808;SDS011;2418;49.930;8.606;2024-03-22T11:25:36;14.30;;;9.35;;
4808;SDS011;2418;49.930;8.606;2024-03-22T11:28:02;14.48;;;9.25;;
4808;SDS011;2418;49.930;8.606;2024-03-22T11:30:29;11.88;;;8.48;;
4808;SDS011;2418;49.930;8.606;2024-03-22T11:32:55;14.50;;;9.13;;
4808;SDS011;2418;49.930;8.606;2024-03-22T11:35:21;12.68;;;7.68;;
4808;SDS011;2418;49.930;8.606;2024-03-22T11:37:48;11.30;;;8.02;;
4808;SDS011;2418;49.930;8.606;2024-03-22T11:40:14;9.05;;;7.82;;
4808;SDS011;2418;49.930;8.606;2024-03-22T11:42:41;11.75;;;8.27;;
4808;SDS011;2418;49.930;8.606;2024-03-22T11:45:09;9.20;;;7.75;;
4808;SDS011;2418;49.930;8.606;2024-03-22T11:47:36;9.10;;;8.20;;
4808;SDS011;2418;49.930;8.606;2024-03-22T11:50:03;8.32;;;7.53;;
4808;SDS011;2418;49.930;8.606;2024-03-22T11:52:29;9.40;;;8.52;;
4808;SDS011;2418;49.930;8.606;2024-03-22T11:54:56;11.63;;;8.60;;
4808;SDS011;2418;49.930;8.606;2024-03-22T11:57:22;11.70;;;8.85;;
4808;SDS011;2418;49.930;8.606;2024-03-22T11:59:48;154.90;;;54.22;;
4808;SDS011;2418;49.930;8.606;2024-03-22T12:02:15;82.50;;;33.45;;
4808;SDS011;2418;49.930;8.606;2024-03-22T12:04:42;15.73;;;10.40;;
4808;SDS011;2418;49.930;8.606;2024-03-22T12:07:10;20.58;;;8.93;;
4808;SDS011;2418;49.930;8.606;2024-03-22T12:09:37;9.73;;;8.50;;
4808;SDS011;2418;49.930;8.606;2024-03-22T12:12:04;8.73;;;8.02;;
4808;SDS011;2418;49.930;8.606;2024-03-22T12:14:32;9.48;;;8.35;;
4808;SDS011;2418;49.930;8.606;2024-03-22T12:16:58;14.93;;;9.50;;
4808;SDS011;2418;49.930;8.606;2024-03-22T12:19:24;11.03;;;8.80;;
4808;SDS011;2418;49.930;8.606;2024-03-22T12:21:50;16.77;;;10.10;;
4808;SDS011;2418;49.930;8.606;2024-03-22T12:24:16;12.32;;;9.45;;
4808;SDS011;2418;49.930;8.606;2024-03-22T12:26:42;14.68;;;9.82;;
4808;SDS011;2418;49.930;8.606;2024-03-22T12:29:08;12.13;;;8.95;;
4808;SDS011;2418;49.930;8.606;2024-03-22T12:31:37;12.35;;;9.32;;
4808;SDS011;2418;49.930;8.606;2024-03-22T12:34:03;16.73;;;9.48;;
4808;SDS011;2418;49.930;8.606;2024-03-22T12:36:29;12.07;;;9.50;;
4808;SDS011;2418;49.930;8.606;2024-03-22T12:38:55;9.77;;;8.75;;
4808;SDS011;2418;49.930;8.606;2024-03-22T12:41:20;18.10;;;10.55;;
4808;SDS011;2418;49.930;8.606;2024-03-22T12:43:46;13.02;;;9.32;;
4808;SDS011;2418;49.930;8.606;2024-03-22T12:46:12;15.40;;;9.95;;
4808;SDS011;2418;49.930;8.606;2024-03-22T12:48:38;10.90;;;9.75;;
4808;SDS011;2418;49.930;8.606;2024-03-22T12:51:05;13.70;;;10.00;;
4808;SDS011;2418;49.930;8.606;2024-03-22T12:53:32;11.68;;;10.48;;
4808;SDS011;2418;49.930;8.606;2024-03-22T12:55:58;17.00;;;9.70;;
4808;SDS011;2418;49.930;8.606;2024-03-22T12:58:24;14.50;;;9.40;;
4808;SDS011;2418;49.930;8.606;2024-03-22T13:00:51;12.55;;;9.45;;
4808;SDS011;2418;49.930;8.606;2024-03-22T13:03:17;9.95;;;8.95;;
4808;SDS011;2418;49.930;8.606;2024-03-22T13:05:43;12.75;;;8.82;;
4808;SDS011;2418;49.930;8.606;2024-03-22T13:08:10;10.27;;;8.68;;
4808;SDS011;2418;49.930;8.606;2024-03-22T13:10:36;11.35;;;8.60;;
4808;SDS011;2418;49.930;8.606;2024-03-22T13:13:04;11.65;;;10.07;;
4808;SDS011;2418;49.930;8.606;2024-03-22T13:15:30;12.52;;;9.20;;
4808;SDS011;2418;49.930;8.606;2024-03-22T13:17:58;12.63;;;9.70;;
4808;SDS011;2418;49.930;8.606;2024-03-22T13:20:23;12.80;;;10.73;;
4808;SDS011;2418;49.930;8.606;2024-03-22T13:22:49;13.80;;;10.13;;
4808;SDS011;2418;49.930;8.606;2024-03-22T13:25:15;13.40;;;10.43;;
4808;SDS011;2418;49.930;8.606;2024-03-22T13:27:41;15.75;;;12.75;;
4808;SDS011;2418;49.930;8.606;2024-03-22T13:30:07;13.30;;;11.67;;
4808;SDS011;2418;49.930;8.606;2024-03-22T13:32:35;19.67;;;11.20;;
4808;SDS011;2418;49.930;8.606;2024-03-22T13:35:02;19.60;;;12.02;;
4808;SDS011;2418;49.930;8.606;2024-03-22T13:37:28;18.70;;;11.38;;
4808;SDS011;2418;49.930;8.606;2024-03-22T13:39:54;15.63;;;11.02;;
4808;SDS011;2418;49.930;8.606;2024-03-22T13:42:22;15.80;;;12.27;;
4808;SDS011;2418;49.930;8.606;2024-03-22T13:44:47;16.20;;;11.40;;
4808;SDS011;2418;49.930;8.606;2024-03-22T13:47:13;18.60;;;13.60;;
4808;SDS011;2418;49.930;8.606;2024-03-22T13:49:39;16.20;;;12.63;;
4808;SDS011;2418;49.930;8.606;2024-03-22T13:52:06;24.97;;;12.70;;
4808;SDS011;2418;49.930;8.606;2024-03-22T13:54:33;16.83;;;13.05;;
4808;SDS011;2418;49.930;8.606;2024-03-22T13:56:59;17.73;;;13.00;;
4808;SDS011;2418;49.930;8.606;2024-03-22T13:59:25;18.13;;;13.88;;
4808;SDS011;2418;49.930;8.606;2024-03-22T14:01:51;22.98;;;14.65;;
4808;SDS011;2418;49.930;8.606;2024-03-22T14:04:17;22.92;;;15.90;;
4808;SDS011;2418;49.930;8.606;2024-03-22T14:06:48;24.50;;;14.43;;
4808;SDS011;2418;49.930;8.606;2024-03-22T14:09:15;22.05;;;14.98;;
4808;SDS011;2418;49.930;8.606;2024-03-22T14:11:41;28.13;;;16.13;;
4808;SDS011;2418;49.930;8.606;2024-03-22T14:14:11;21.10;;;15.93;;
4808;SDS011;2418;49.930;8.606;2024-03-22T14:16:40;27.27;;;16.73;;
4808;SDS011;2418;49.930;8.606;2024-03-22T14:19:09;23.03;;;15.27;;
4808;SDS011;2418;49.930;8.606;2024-03-22T14:21:35;24.98;;;15.15;;
4808;SDS011;2418;49.930;8.606;2024-03-22T14:24:03;24.10;;;14.80;;
4808;SDS011;2418;49.930;8.606;2024-03-22T14:26:29;22.27;;;15.40;;
4808;SDS011;2418;49.930;8.606;2024-03-22T14:28:55;23.42;;;16.25;;
4808;SDS011;2418;49.930;8.606;2024-03-22T14:31:22;22.27;;;15.10;;
4808;SDS011;2418;49.930;8.606;2024-03-22T14:33:48;24.38;;;15.88;;
4808;SDS011;2418;49.930;8.606;2024-03-22T14:36:14;21.98;;;15.60;;
4808;SDS011;2418;49.930;8.606;2024-03-22T14:38:40;23.30;;;15.73;;
4808;SDS011;2418;49.930;8.606;2024-03-22T14:41:06;20.65;;;15.25;;
4808;SDS011;2418;49.930;8.606;2024-03-22T14:43:33;23.58;;;15.48;;
4808;SDS011;2418;49.930;8.606;2024-03-22T14:46:00;27.38;;;15.95;;
4808;SDS011;2418;49.930;8.606;2024-03-22T14:48:29;19.63;;;15.48;;